createdAt,value
2018-12-01T00:00:26.635Z,19.40
2018-12-01T00:02:55.029Z,21.37
2018-12-01T00:05:23.328Z,25.00
2018-12-01T00:07:51.800Z,24.85
2018-12-01T00:10:20.266Z,26.52
2018-12-01T00:12:48.642Z,25.95
2018-12-01T00:15:19.555Z,27.95
2018-12-01T00:17:47.992Z,24.52
2018-12-01T00:20:18.895Z,22.25
2018-12-01T00:22:47.394Z,23.52
2018-12-01T00:25:15.785Z,20.62
2018-12-01T00:27:44.162Z,19.23
2018-12-01T00:30:13.566Z,25.62
2018-12-01T00:32:42.288Z,21.75
2018-12-01T00:35:11.627Z,21.10
2018-12-01T00:37:39.962Z,24.15
2018-12-01T00:40:12.453Z,21.10
2018-12-01T00:42:40.835Z,20.50
2018-12-01T00:45:12.169Z,27.48
2018-12-01T00:47:40.573Z,17.73
2018-12-01T00:50:11.708Z,24.23
2018-12-01T00:52:39.983Z,32.35
2018-12-01T00:55:11.391Z,22.32
2018-12-01T00:57:39.777Z,21.00
2018-12-01T01:00:12.047Z,30.12
2018-12-01T01:02:40.454Z,23.18
2018-12-01T01:05:08.911Z,32.00
2018-12-01T01:07:37.217Z,29.02
2018-12-01T01:10:08.537Z,23.05
2018-12-01T01:12:36.834Z,22.77
2018-12-01T01:15:06.694Z,25.82
2018-12-01T01:17:35.406Z,19.05
2018-12-01T01:20:05.717Z,23.30
2018-12-01T01:22:34.026Z,25.30
2018-12-01T01:25:02.436Z,21.27
2018-12-01T01:27:30.816Z,26.02
2018-12-01T01:29:59.229Z,22.05
2018-12-01T01:32:27.802Z,20.25
2018-12-01T01:34:56.157Z,23.10
2018-12-01T01:37:24.477Z,28.25
2018-12-01T01:39:52.875Z,21.48
2018-12-01T01:42:21.219Z,22.87
2018-12-01T01:44:49.614Z,27.98
2018-12-01T01:47:17.976Z,29.48
2018-12-01T01:49:46.337Z,27.30
2018-12-01T01:52:14.628Z,26.23
2018-12-01T01:54:43.019Z,25.05
2018-12-01T01:57:11.332Z,22.55
2018-12-01T01:59:39.710Z,29.50
2018-12-01T02:02:08.285Z,19.25
2018-12-01T02:04:36.752Z,23.07
2018-12-01T02:07:06.151Z,20.15
2018-12-01T02:09:34.572Z,19.12
2018-12-01T02:12:02.969Z,24.87
2018-12-01T02:14:31.343Z,26.97
2018-12-01T02:16:59.793Z,26.82
2018-12-01T02:19:28.209Z,22.02
2018-12-01T02:21:56.905Z,28.07
2018-12-01T02:24:25.298Z,16.27
2018-12-01T02:26:53.627Z,24.23
2018-12-01T02:29:22.043Z,24.30
2018-12-01T02:31:50.537Z,25.12
2018-12-01T02:34:18.886Z,26.35
2018-12-01T02:36:47.241Z,33.45
2018-12-01T02:39:15.592Z,24.72
2018-12-01T02:41:43.981Z,17.82
2018-12-01T02:44:32.274Z,21.75
2018-12-01T02:47:09.395Z,21.55
2018-12-01T02:49:38.196Z,18.75
2018-12-01T02:52:07.150Z,30.70
2018-12-01T02:54:35.498Z,17.75
2018-12-01T02:57:03.826Z,22.15
2018-12-01T02:59:32.182Z,25.30
2018-12-01T03:02:00.466Z,23.35
2018-12-01T03:04:28.837Z,22.40
2018-12-01T03:06:57.207Z,19.80
2018-12-01T03:09:25.583Z,19.90
2018-12-01T03:11:53.872Z,26.65
2018-12-01T03:14:22.278Z,21.57
2018-12-01T03:16:50.630Z,27.82
2018-12-01T03:19:19.215Z,22.65
2018-12-01T03:21:47.616Z,18.75
2018-12-01T03:24:16.215Z,20.72
2018-12-01T03:26:44.665Z,18.52
2018-12-01T03:29:13.071Z,19.62
2018-12-01T03:31:41.427Z,25.85
2018-12-01T03:34:09.794Z,21.23
2018-12-01T03:36:38.143Z,23.73
2018-12-01T03:39:09.021Z,18.95
2018-12-01T03:41:37.689Z,18.02
2018-12-01T03:44:06.428Z,23.12
2018-12-01T03:46:34.833Z,24.23
2018-12-01T03:49:03.185Z,19.07
2018-12-01T03:51:31.548Z,25.65
2018-12-01T03:53:59.870Z,17.98
2018-12-01T03:56:28.343Z,18.52
2018-12-01T03:58:56.810Z,17.02
2018-12-01T04:01:25.136Z,20.25
2018-12-01T04:03:53.567Z,16.07
2018-12-01T04:06:21.902Z,21.33
2018-12-01T04:08:50.238Z,18.98
2018-12-01T04:11:18.706Z,23.95
2018-12-01T04:13:47.066Z,14.50
2018-12-01T04:16:15.472Z,16.93
2018-12-01T04:18:43.819Z,18.75
2018-12-01T04:21:12.109Z,20.55
2018-12-01T04:23:40.446Z,17.25
2018-12-01T04:26:08.741Z,18.87
2018-12-01T04:28:37.124Z,21.12
2018-12-01T04:31:05.487Z,21.75
2018-12-01T04:33:33.822Z,23.98
2018-12-01T04:36:02.240Z,18.35
2018-12-01T04:38:30.656Z,21.57
2018-12-01T04:40:59.137Z,14.90
2018-12-01T04:43:27.455Z,18.00
2018-12-01T04:45:55.758Z,16.87
2018-12-01T04:48:24.083Z,22.70
2018-12-01T04:50:52.577Z,17.90
2018-12-01T04:53:20.925Z,13.55
2018-12-01T04:55:49.337Z,19.57
2018-12-01T04:58:17.758Z,22.75
2018-12-01T05:00:46.074Z,12.75
2018-12-01T05:03:14.373Z,15.90
2018-12-01T05:05:42.773Z,16.65
2018-12-01T05:08:11.169Z,17.92
2018-12-01T05:10:39.526Z,17.20
2018-12-01T05:13:08.143Z,17.92
2018-12-01T05:15:36.508Z,20.60
2018-12-01T05:18:05.080Z,15.88
2018-12-01T05:20:33.405Z,21.48
2018-12-01T05:23:01.710Z,15.58
2018-12-01T05:25:30.012Z,15.78
2018-12-01T05:27:58.342Z,14.73
2018-12-01T05:30:26.679Z,20.55
2018-12-01T05:32:55.025Z,20.15
2018-12-01T05:35:24.501Z,18.95
2018-12-01T05:37:52.807Z,14.55
2018-12-01T05:40:21.628Z,14.47
2018-12-01T05:42:49.906Z,12.45
2018-12-01T05:45:20.915Z,13.85
2018-12-01T05:47:49.517Z,12.88
2018-12-01T05:50:27.504Z,16.48
2018-12-01T05:52:57.374Z,12.10
2018-12-01T05:55:25.793Z,15.03
2018-12-01T05:57:54.148Z,16.55
2018-12-01T06:00:22.459Z,10.55
2018-12-01T06:02:50.782Z,14.00
2018-12-01T06:05:19.178Z,18.17
2018-12-01T06:07:47.607Z,19.07
2018-12-01T06:10:20.081Z,25.20
2018-12-01T06:12:49.173Z,16.37
2018-12-01T06:15:18.623Z,19.30
2018-12-01T06:17:47.258Z,17.87
2018-12-01T06:20:23.687Z,19.40
2018-12-01T06:22:52.137Z,15.40
2018-12-01T06:25:21.769Z,18.87
2018-12-01T06:27:50.330Z,12.13
2018-12-01T06:30:19.536Z,25.95
2018-12-01T06:32:49.133Z,49.42
2018-12-01T06:35:17.885Z,20.12
2018-12-01T06:37:46.450Z,15.40
2018-12-01T06:40:17.076Z,14.45
2018-12-01T06:42:45.387Z,11.73
2018-12-01T06:45:14.351Z,21.77
2018-12-01T06:47:42.811Z,17.92
2018-12-01T06:50:12.215Z,14.07
2018-12-01T06:52:40.558Z,14.47
2018-12-01T06:55:10.234Z,15.83
2018-12-01T06:57:38.684Z,17.02
2018-12-01T07:00:10.797Z,34.53
2018-12-01T07:02:39.190Z,32.63
2018-12-01T07:05:08.887Z,15.08
2018-12-01T07:07:37.211Z,15.93
2018-12-01T07:10:22.802Z,9.70
2018-12-01T07:13:00.375Z,16.48
2018-12-01T07:15:32.020Z,16.55
2018-12-01T07:18:00.501Z,21.37
2018-12-01T07:20:29.499Z,14.30
2018-12-01T07:22:58.463Z,19.90
2018-12-01T07:25:28.013Z,20.00
2018-12-01T07:27:56.402Z,14.43
2018-12-01T07:30:25.105Z,16.07
2018-12-01T07:32:53.559Z,21.42
2018-12-01T07:35:21.883Z,32.67
2018-12-01T07:37:50.179Z,17.23
2018-12-01T07:40:18.839Z,18.12
2018-12-01T07:42:47.195Z,22.48
2018-12-01T07:45:15.989Z,20.50
2018-12-01T07:47:45.765Z,17.92
2018-12-01T07:50:16.005Z,17.15
2018-12-01T07:52:46.790Z,14.80
2018-12-01T07:55:15.142Z,17.10
2018-12-01T07:57:43.441Z,10.63
2018-12-01T08:00:12.954Z,20.95
2018-12-01T08:02:41.859Z,25.85
2018-12-01T08:05:10.978Z,20.10
2018-12-01T08:07:39.463Z,13.58
2018-12-01T08:10:09.315Z,20.45
2018-12-01T08:12:37.760Z,11.53
2018-12-01T08:15:12.282Z,21.57
2018-12-01T08:17:40.638Z,12.13
2018-12-01T08:20:11.034Z,12.75
2018-12-01T08:22:39.517Z,17.82
2018-12-01T08:25:12.646Z,18.67
2018-12-01T08:27:41.229Z,22.32
2018-12-01T08:30:27.410Z,10.90
2018-12-01T08:32:55.906Z,12.58
2018-12-01T08:35:25.133Z,16.95
2018-12-01T08:37:53.792Z,21.07
2018-12-01T08:40:24.583Z,12.30
2018-12-01T08:42:53.193Z,11.60
2018-12-01T08:45:21.689Z,13.88
2018-12-01T08:47:50.030Z,20.70
2018-12-01T08:50:20.588Z,14.43
2018-12-01T08:52:48.967Z,19.32
2018-12-01T08:55:19.468Z,14.75
2018-12-01T08:57:47.938Z,16.00
2018-12-01T09:00:20.458Z,19.65
2018-12-01T09:02:50.769Z,12.98
2018-12-01T09:05:19.328Z,14.98
2018-12-01T09:07:47.917Z,16.02
2018-12-01T09:10:16.422Z,12.30
2018-12-01T09:12:44.896Z,14.10
2018-12-01T09:15:13.697Z,13.72
2018-12-01T09:17:42.170Z,15.90
2018-12-01T09:20:11.618Z,18.48
2018-12-01T09:22:42.113Z,15.45
2018-12-01T09:25:11.858Z,17.70
2018-12-01T09:27:40.285Z,17.92
2018-12-01T09:30:20.679Z,16.95
2018-12-01T09:32:49.302Z,19.70
2018-12-01T09:35:17.992Z,13.38
2018-12-01T09:37:47.035Z,16.27
2018-12-01T09:40:16.823Z,20.32
2018-12-01T09:42:45.745Z,12.25
2018-12-01T09:45:16.011Z,17.80
2018-12-01T09:47:45.469Z,17.00
2018-12-01T09:50:15.423Z,16.93
2018-12-01T09:52:44.994Z,15.18
2018-12-01T09:55:15.559Z,17.90
2018-12-01T09:57:44.598Z,9.48
2018-12-01T10:00:15.979Z,19.82
2018-12-01T10:02:44.885Z,13.32
2018-12-01T10:05:15.258Z,20.68
2018-12-01T10:07:43.576Z,15.75
2018-12-01T10:10:13.169Z,20.75
2018-12-01T10:12:41.459Z,18.70
2018-12-01T10:15:14.171Z,16.30
2018-12-01T10:17:42.519Z,17.00
2018-12-01T10:20:13.979Z,12.55
2018-12-01T10:22:42.538Z,16.05
2018-12-01T10:25:12.307Z,19.20
2018-12-01T10:27:40.642Z,20.10
2018-12-01T10:30:11.498Z,11.25
2018-12-01T10:32:39.841Z,14.18
2018-12-01T10:35:09.915Z,13.13
2018-12-01T10:37:38.253Z,17.67
2018-12-01T10:40:10.387Z,12.70
2018-12-01T10:42:38.734Z,18.10
2018-12-01T10:45:14.795Z,15.60
2018-12-01T10:47:43.678Z,11.20
2018-12-01T10:50:14.864Z,16.65
2018-12-01T10:52:43.233Z,17.42
2018-12-01T10:55:23.034Z,16.73
2018-12-01T10:57:52.190Z,14.93
2018-12-01T11:00:25.840Z,12.68
2018-12-01T11:02:56.347Z,14.25
2018-12-01T11:05:24.998Z,12.07
2018-12-01T11:07:53.406Z,14.80
2018-12-01T11:10:21.718Z,7.78
2018-12-01T11:12:56.594Z,13.90
2018-12-01T11:15:24.905Z,13.90
2018-12-01T11:17:53.293Z,16.93
2018-12-01T11:20:21.683Z,21.42
2018-12-01T11:22:50.025Z,12.68
2018-12-01T11:25:18.438Z,17.80
2018-12-01T11:27:46.733Z,18.95
2018-12-01T11:30:18.774Z,11.48
2018-12-01T11:32:47.347Z,10.53
2018-12-01T11:35:15.644Z,8.80
2018-12-01T11:37:44.591Z,14.30
2018-12-01T11:40:16.091Z,9.38
2018-12-01T11:42:44.642Z,13.70
2018-12-01T11:45:14.778Z,8.18
2018-12-01T11:47:43.183Z,33.42
2018-12-01T11:50:12.688Z,21.12
2018-12-01T11:52:41.204Z,11.97
2018-12-01T11:55:11.648Z,11.73
2018-12-01T11:57:40.051Z,12.60
2018-12-01T12:00:13.670Z,11.38
2018-12-01T12:02:42.091Z,14.60
2018-12-01T12:05:11.456Z,8.35
2018-12-01T12:07:51.291Z,11.10
2018-12-01T12:10:19.679Z,11.70
2018-12-01T12:12:48.336Z,9.95
2018-12-01T12:15:16.869Z,16.00
2018-12-01T12:17:47.181Z,8.40
2018-12-01T12:20:15.638Z,8.95
2018-12-01T12:22:44.471Z,13.85
2018-12-01T12:25:12.853Z,12.43
2018-12-01T12:27:41.246Z,7.42
2018-12-01T12:30:18.397Z,9.45
2018-12-01T12:32:47.104Z,10.10
2018-12-01T12:35:16.890Z,13.43
2018-12-01T12:37:45.698Z,8.78
2018-12-01T12:40:17.146Z,7.55
2018-12-01T12:42:45.701Z,9.98
2018-12-01T12:45:15.018Z,16.17
2018-12-01T12:47:43.419Z,12.13
2018-12-01T12:50:13.646Z,13.38
2018-12-01T12:52:43.404Z,30.32
2018-12-01T12:55:18.644Z,11.75
2018-12-01T12:57:48.053Z,8.83
2018-12-01T13:00:18.683Z,12.95
2018-12-01T13:02:50.116Z,17.07
2018-12-01T13:05:20.866Z,8.10
2018-12-01T13:07:49.284Z,10.80
2018-12-01T13:10:20.903Z,7.97
2018-12-01T13:12:49.353Z,8.63
2018-12-01T13:15:17.733Z,7.60
2018-12-01T13:17:46.344Z,8.65
2018-12-01T13:20:23.873Z,6.50
2018-12-01T13:22:56.660Z,13.20
2018-12-01T13:25:25.121Z,10.38
2018-12-01T13:27:57.884Z,11.00
2018-12-01T13:30:27.762Z,6.53
2018-12-01T13:32:56.570Z,7.62
2018-12-01T13:35:25.064Z,9.30
2018-12-01T13:37:53.634Z,9.98
2018-12-01T13:40:22.023Z,11.73
2018-12-01T13:42:50.441Z,7.62
2018-12-01T13:45:19.062Z,15.30
2018-12-01T13:47:49.795Z,7.15
2018-12-01T13:50:19.274Z,7.67
2018-12-01T13:52:56.724Z,15.28
2018-12-01T13:55:25.080Z,8.35
2018-12-01T13:57:53.459Z,32.83
2018-12-01T14:00:24.873Z,11.03
2018-12-01T14:02:53.181Z,6.28
2018-12-01T14:05:21.579Z,6.37
2018-12-01T14:07:49.861Z,7.92
2018-12-01T14:10:22.087Z,7.85
2018-12-01T14:13:00.712Z,7.37
2018-12-01T14:15:29.049Z,7.62
2018-12-01T14:17:57.450Z,5.75
2018-12-01T14:20:25.803Z,7.90
2018-12-01T14:22:54.147Z,7.40
2018-12-01T14:25:22.874Z,5.12
2018-12-01T14:27:53.582Z,8.78
2018-12-01T14:30:22.008Z,5.28
2018-12-01T14:32:50.365Z,6.25
2018-12-01T14:35:26.147Z,8.73
2018-12-01T14:37:57.123Z,10.75
2018-12-01T14:40:25.453Z,12.35
2018-12-01T14:42:53.709Z,7.47
2018-12-01T14:45:22.134Z,8.90
2018-12-01T14:47:50.538Z,5.67
2018-12-01T14:50:18.912Z,6.50
2018-12-01T14:52:47.261Z,7.17
2018-12-01T14:55:16.606Z,8.45
2018-12-01T14:57:45.433Z,16.05
2018-12-01T15:00:16.815Z,6.00
2018-12-01T15:02:45.311Z,5.85
2018-12-01T15:05:13.827Z,5.22
2018-12-01T15:07:42.355Z,8.60
2018-12-01T15:10:15.620Z,8.38
2018-12-01T15:12:44.206Z,8.03
2018-12-01T15:15:13.822Z,7.72
2018-12-01T15:17:42.523Z,7.55
2018-12-01T15:20:12.067Z,8.38
2018-12-01T15:22:40.537Z,6.37
2018-12-01T15:25:14.243Z,7.35
2018-12-01T15:27:42.635Z,7.75
2018-12-01T15:30:16.475Z,7.15
2018-12-01T15:32:46.711Z,6.22
2018-12-01T15:35:15.423Z,6.65
2018-12-01T15:37:44.558Z,6.22
2018-12-01T15:40:17.676Z,10.63
2018-12-01T15:42:46.379Z,9.48
2018-12-01T15:45:19.961Z,8.00
2018-12-01T15:47:48.344Z,10.18
2018-12-01T15:50:20.552Z,6.53
2018-12-01T15:52:50.812Z,53.83
2018-12-01T15:55:19.342Z,13.28
2018-12-01T15:57:47.752Z,5.37
2018-12-01T16:00:21.131Z,9.10
2018-12-01T16:02:49.588Z,10.00
2018-12-01T16:05:20.017Z,6.47
2018-12-01T16:07:49.947Z,7.03
2018-12-01T16:10:19.661Z,12.65
2018-12-01T16:12:49.603Z,6.25
2018-12-01T16:15:28.889Z,5.80
2018-12-01T16:17:57.217Z,5.03
2018-12-01T16:20:25.626Z,10.43
2018-12-01T16:22:54.071Z,7.60
2018-12-01T16:25:23.714Z,8.48
2018-12-01T16:27:52.195Z,6.97
2018-12-01T16:30:26.075Z,6.97
2018-12-01T16:32:57.081Z,9.00
2018-12-01T16:35:25.441Z,7.45
2018-12-01T16:37:53.872Z,7.12
2018-12-01T16:40:32.578Z,7.28
2018-12-01T16:43:02.995Z,5.70
2018-12-01T16:45:32.487Z,6.22
2018-12-01T16:48:01.062Z,11.35
2018-12-01T16:50:30.249Z,4.90
2018-12-01T16:52:59.573Z,4.80
2018-12-01T16:55:28.338Z,6.53
2018-12-01T16:57:56.864Z,6.47
2018-12-01T17:00:25.339Z,11.53
2018-12-01T17:02:56.304Z,13.95
2018-12-01T17:05:26.334Z,5.80
2018-12-01T17:07:54.863Z,4.65
2018-12-01T17:10:23.406Z,6.70
2018-12-01T17:12:53.084Z,13.95
2018-12-01T17:15:22.123Z,13.08
2018-12-01T17:17:53.796Z,8.28
2018-12-01T17:20:22.209Z,4.92
2018-12-01T17:22:53.807Z,6.33
2018-12-01T17:25:22.159Z,5.92
2018-12-01T17:27:51.440Z,5.28
2018-12-01T17:30:21.772Z,3.65
2018-12-01T17:32:50.560Z,6.58
2018-12-01T17:35:20.135Z,6.90
2018-12-01T17:37:49.880Z,4.95
2018-12-01T17:41:23.560Z,2.62
2018-12-01T17:44:04.573Z,6.03
2018-12-01T17:46:32.991Z,7.20
2018-12-01T17:49:01.317Z,7.50
2018-12-01T17:51:29.657Z,11.50
2018-12-01T17:54:03.264Z,16.85
2018-12-01T17:56:31.615Z,3.05
2018-12-01T17:58:59.915Z,7.25
2018-12-01T18:01:28.677Z,7.62
2018-12-01T18:03:56.983Z,5.47
2018-12-01T18:06:25.468Z,6.95
2018-12-01T18:08:53.774Z,7.92
2018-12-01T18:11:22.174Z,14.87
2018-12-01T18:13:50.490Z,7.90
2018-12-01T18:16:18.811Z,4.22
2018-12-01T18:18:47.184Z,4.22
2018-12-01T18:21:15.673Z,5.08
2018-12-01T18:23:44.187Z,5.90
2018-12-01T18:26:12.592Z,6.58
2018-12-01T18:28:44.978Z,3.75
2018-12-01T18:31:15.799Z,4.00
2018-12-01T18:33:45.680Z,6.40
2018-12-01T18:36:15.208Z,6.20
2018-12-01T18:38:45.519Z,26.95
2018-12-01T18:41:14.073Z,31.97
2018-12-01T18:43:43.170Z,8.55
2018-12-01T18:46:14.108Z,3.77
2018-12-01T18:48:43.655Z,5.17
2018-12-01T18:51:12.561Z,7.05
2018-12-01T18:53:41.116Z,6.53
2018-12-01T18:56:10.479Z,6.87
2018-12-01T18:58:39.171Z,8.08
2018-12-01T19:01:08.883Z,6.35
2018-12-01T19:03:37.698Z,3.70
2018-12-01T19:06:06.719Z,6.25
2018-12-01T19:08:35.048Z,5.05
2018-12-01T19:11:03.530Z,4.17
2018-12-01T19:13:32.106Z,3.47
2018-12-01T19:16:00.423Z,7.67
2018-12-01T19:18:28.947Z,3.45
2018-12-01T19:20:57.383Z,5.03
2018-12-01T19:23:25.919Z,3.42
2018-12-01T19:25:54.570Z,5.15
2018-12-01T19:28:23.090Z,7.80
2018-12-01T19:30:51.943Z,6.60
2018-12-01T19:33:22.362Z,3.15
2018-12-01T19:35:52.000Z,4.83
2018-12-01T19:38:22.695Z,6.55
2018-12-01T19:40:51.352Z,7.37
2018-12-01T19:43:19.662Z,22.07
2018-12-01T19:45:48.044Z,4.40
2018-12-01T19:48:16.482Z,2.95
2018-12-01T19:50:44.840Z,3.15
2018-12-01T19:53:15.178Z,5.92
2018-12-01T19:55:44.441Z,5.92
2018-12-01T19:58:14.519Z,4.80
2018-12-01T20:00:44.598Z,2.25
2018-12-01T20:03:17.409Z,6.83
2018-12-01T20:05:45.813Z,5.12
2018-12-01T20:08:15.203Z,4.08
2018-12-01T20:10:47.754Z,5.72
2018-12-01T20:13:22.467Z,14.63
2018-12-01T20:15:55.418Z,5.62
2018-12-01T20:18:27.206Z,6.62
2018-12-01T20:20:55.634Z,4.62
2018-12-01T20:23:24.074Z,3.08
2018-12-01T20:25:52.724Z,10.30
2018-12-01T20:28:21.206Z,3.72
2018-12-01T20:30:50.300Z,3.37
2018-12-01T20:33:19.633Z,2.98
2018-12-01T20:35:54.604Z,3.15
2018-12-01T20:38:34.076Z,5.12
2018-12-01T20:41:03.876Z,3.47
2018-12-01T20:43:32.621Z,4.62
2018-12-01T20:46:01.121Z,5.10
2018-12-01T20:48:30.567Z,2.72
2018-12-01T20:50:58.956Z,7.10
2018-12-01T20:53:27.304Z,5.75
2018-12-01T20:55:57.132Z,19.45
2018-12-01T20:58:28.022Z,8.83
2018-12-01T21:00:56.454Z,5.12
2018-12-01T21:03:24.740Z,18.77
2018-12-01T21:05:53.083Z,3.98
2018-12-01T21:08:27.466Z,3.08
2018-12-01T21:10:52.924Z,4.78
2018-12-01T21:13:21.304Z,3.87
2018-12-01T21:15:49.631Z,6.58
2018-12-01T21:18:18.018Z,4.42
2018-12-01T21:20:46.440Z,5.78
2018-12-01T21:23:15.001Z,3.67
2018-12-01T21:25:43.814Z,5.97
2018-12-01T21:28:12.562Z,5.15
2018-12-01T21:30:41.084Z,3.25
2018-12-01T21:33:11.390Z,4.70
2018-12-01T21:35:40.156Z,6.70
2018-12-01T21:38:12.316Z,2.83
2018-12-01T21:40:41.725Z,6.20
2018-12-01T21:43:10.784Z,3.05
2018-12-01T21:45:39.254Z,3.77
2018-12-01T21:48:09.570Z,5.65
2018-12-01T21:50:38.599Z,4.47
2018-12-01T21:53:10.411Z,3.65
2018-12-01T21:55:38.751Z,5.65
2018-12-01T21:58:07.544Z,17.57
2018-12-01T22:00:36.502Z,7.70
2018-12-01T22:03:08.226Z,10.35
2018-12-01T22:05:44.313Z,9.73
2018-12-01T22:08:14.209Z,3.05
2018-12-01T22:10:43.747Z,2.45
2018-12-01T22:13:12.057Z,3.92
2018-12-01T22:15:40.462Z,5.25
2018-12-01T22:18:08.763Z,2.52
2018-12-01T22:20:37.141Z,5.25
2018-12-01T22:23:05.781Z,2.50
2018-12-01T22:25:34.168Z,5.83
2018-12-01T22:28:02.502Z,3.92
2018-12-01T22:30:30.878Z,6.62
2018-12-01T22:33:00.093Z,4.37
2018-12-01T22:35:29.376Z,5.40
2018-12-01T22:37:58.467Z,3.83
2018-12-01T22:40:29.155Z,11.15
2018-12-01T22:43:02.662Z,6.12
2018-12-01T22:45:31.011Z,4.92
2018-12-01T22:48:00.335Z,5.10
2018-12-01T22:50:28.719Z,2.62
2018-12-01T22:52:58.209Z,3.08
2018-12-01T22:55:28.041Z,8.53
2018-12-01T22:58:02.879Z,4.10
2018-12-01T23:00:42.772Z,3.22
2018-12-01T23:03:11.920Z,3.02
2018-12-01T23:05:40.281Z,4.67
2018-12-01T23:08:10.099Z,4.92
2018-12-01T23:10:38.456Z,3.58
2018-12-01T23:13:07.255Z,3.98
2018-12-01T23:15:35.674Z,3.65
2018-12-01T23:18:05.659Z,3.80
2018-12-01T23:20:33.972Z,4.25
2018-12-01T23:23:02.366Z,5.70
2018-12-01T23:25:30.724Z,4.72
2018-12-01T23:27:59.314Z,4.95
2018-12-01T23:30:29.226Z,5.00
2018-12-01T23:33:00.097Z,3.30
2018-12-01T23:35:29.362Z,5.45
2018-12-01T23:37:58.061Z,3.70
2018-12-01T23:40:26.456Z,4.90
2018-12-01T23:42:54.760Z,3.15
2018-12-01T23:45:23.397Z,7.03
2018-12-01T23:47:51.986Z,4.17
2018-12-01T23:50:23.430Z,2.90
2018-12-01T23:52:57.942Z,3.22
2018-12-01T23:55:26.292Z,2.50
2018-12-01T23:57:54.636Z,3.00
